Time;durP1;ratioP1;P1;durP2;ratioP2;P2;SDS_P1;SDS_P2;PMS_P1;PMS_P2;Temp;Humidity;BMP_temperature;BMP_pressure;BME280_temperature;BME280_humidity;BME280_pressure;Samples;Min_cycle;Max_cycle;Signal;HPM_P1;HPM_P2
2021/05/19 00:04:59;;;;;;;4.85;1.95;;;10.30;99.90;;;;;;10046668;29;20245;-44
2021/05/19 00:10:00;;;;;;;5.25;1.92;;;10.40;99.90;;;;;;10043663;29;20049;-45
2021/05/19 00:15:01;;;;;;;5.82;2.20;;;10.50;99.90;;;;;;10051027;29;20535;-45
2021/05/19 00:20:02;;;;;;;7.75;1.75;;;10.40;99.90;;;;;;10052692;29;20050;-45
2021/05/19 00:25:04;;;;;;;5.80;2.28;;;10.40;99.90;;;;;;10049020;29;20057;-45
2021/05/19 00:30:06;;;;;;;4.10;1.90;;;10.40;99.90;;;;;;10052068;29;20462;-45
2021/05/19 00:35:08;;;;;;;6.10;3.08;;;10.40;99.90;;;;;;10049107;29;20417;-44
2021/05/19 00:40:10;;;;;;;5.13;2.40;;;10.60;99.90;;;;;;10057700;29;20076;-45
2021/05/19 00:45:12;;;;;;;8.50;2.65;;;10.60;99.90;;;;;;10057275;29;20053;-45
2021/05/19 00:50:18;;;;;;;6.07;2.92;;;10.70;99.90;;;;;;10054383;29;20412;-45
2021/05/19 00:55:22;;;;;;;4.90;2.40;;;10.60;99.90;;;;;;10059371;29;20422;-45
2021/05/19 01:00:24;;;;;;;7.13;3.17;;;10.60;99.90;;;;;;10052443;29;20386;-45
2021/05/19 01:05:41;;;;;;;5.78;2.33;;;10.60;99.90;;;;;;10056062;29;20325;-45
2021/05/19 01:10:42;;;;;;;5.70;2.15;;;10.60;99.90;;;;;;10053048;29;20185;-45
2021/05/19 01:15:43;;;;;;;11.05;3.08;;;10.60;99.90;;;;;;10056005;29;20084;-45
2021/05/19 01:20:44;;;;;;;7.93;2.55;;;10.70;99.90;;;;;;10052763;29;20423;-45
2021/05/19 01:25:45;;;;;;;7.38;3.00;;;10.60;99.90;;;;;;10056016;29;20132;-44
2021/05/19 01:30:46;;;;;;;7.57;2.97;;;10.60;99.90;;;;;;10051482;29;20220;-45
2021/05/19 01:35:47;;;;;;;6.82;2.92;;;10.60;99.90;;;;;;10052662;29;20454;-44
2021/05/19 01:40:47;;;;;;;16.83;2.70;;;10.50;99.90;;;;;;10053229;29;20061;-44
2021/05/19 01:45:50;;;;;;;8.57;3.60;;;10.40;99.90;;;;;;10054956;29;20056;-44
2021/05/19 01:50:51;;;;;;;6.85;3.03;;;10.40;99.90;;;;;;10054123;29;20045;-45
2021/05/19 01:55:53;;;;;;;6.18;2.40;;;10.40;99.90;;;;;;10052275;29;20128;-45
2021/05/19 02:00:54;;;;;;;9.50;2.55;;;10.30;99.90;;;;;;10058027;29;20454;-45
2021/05/19 02:05:55;;;;;;;9.82;2.75;;;10.30;99.90;;;;;;10051607;29;20047;-45
2021/05/19 02:10:55;;;;;;;7.43;2.42;;;10.30;99.90;;;;;;10056321;29;20052;-45
2021/05/19 02:15:56;;;;;;;10.85;5.15;;;10.40;99.90;;;;;;10049802;29;20084;-44
2021/05/19 02:21:03;;;;;;;10.70;2.95;;;10.40;99.90;;;;;;10050798;29;20042;-44
2021/05/19 02:26:04;;;;;;;7.97;3.72;;;10.40;99.90;;;;;;10053042;29;20433;-45
2021/05/19 02:31:04;;;;;;;5.50;2.63;;;10.40;99.90;;;;;;10057676;29;20553;-45
2021/05/19 02:36:06;;;;;;;5.82;2.90;;;10.50;99.90;;;;;;10056731;29;20400;-45
2021/05/19 02:41:06;;;;;;;7.25;2.85;;;10.50;99.90;;;;;;10048140;29;20056;-45
2021/05/19 02:46:07;;;;;;;7.47;3.10;;;10.60;99.90;;;;;;10051302;29;20045;-44
2021/05/19 02:51:08;;;;;;;15.68;3.80;;;10.50;99.90;;;;;;10052442;29;20560;-45
2021/05/19 02:56:10;;;;;;;10.85;3.35;;;10.50;99.90;;;;;;10054203;29;20049;-45
2021/05/19 03:01:10;;;;;;;5.20;2.63;;;10.60;99.90;;;;;;10050597;29;20041;-45
2021/05/19 03:06:12;;;;;;;7.35;3.30;;;10.50;99.90;;;;;;10045953;29;20063;-45
2021/05/19 03:11:12;;;;;;;11.93;3.53;;;10.50;99.90;;;;;;10051628;29;20037;-45
2021/05/19 03:16:13;;;;;;;8.52;3.25;;;10.40;99.90;;;;;;10052600;29;20044;-45
2021/05/19 03:21:14;;;;;;;9.60;4.32;;;10.50;99.90;;;;;;10054294;29;20159;-45
2021/05/19 03:26:15;;;;;;;13.93;4.53;;;10.40;99.90;;;;;;10049041;29;20034;-45
2021/05/19 03:31:17;;;;;;;11.80;4.57;;;10.30;99.90;;;;;;10048190;29;20355;-45
2021/05/19 03:36:18;;;;;;;11.65;3.85;;;10.30;99.90;;;;;;10050182;29;20045;-45
2021/05/19 03:41:20;;;;;;;9.50;4.05;;;10.30;99.90;;;;;;10051921;29;20076;-45
2021/05/19 03:46:21;;;;;;;11.95;3.92;;;10.30;99.90;;;;;;10049285;29;20051;-44
2021/05/19 03:51:22;;;;;;;9.80;4.35;;;10.20;99.90;;;;;;10045073;29;20049;-45
2021/05/19 03:56:23;;;;;;;9.93;4.15;;;10.10;99.90;;;;;;10051780;29;20045;-45
2021/05/19 04:01:23;;;;;;;9.52;3.58;;;10.10;99.90;;;;;;10051657;29;20478;-45
2021/05/19 04:06:24;;;;;;;10.68;3.75;;;10.10;99.90;;;;;;10047019;29;20060;-45
2021/05/19 04:11:25;;;;;;;8.13;4.18;;;10.10;99.90;;;;;;10053998;29;20161;-45
2021/05/19 04:16:26;;;;;;;8.38;3.40;;;10.10;99.90;;;;;;10056496;29;20080;-45
2021/05/19 04:21:27;;;;;;;8.27;3.90;;;10.00;99.90;;;;;;10054105;29;20052;-45
2021/05/19 04:26:27;;;;;;;9.07;3.92;;;10.00;99.90;;;;;;10056013;29;20409;-45
2021/05/19 04:31:28;;;;;;;8.10;3.28;;;10.00;99.90;;;;;;10054385;29;20069;-44
2021/05/19 04:36:29;;;;;;;6.97;4.13;;;9.80;99.90;;;;;;10054079;29;20478;-45
2021/05/19 04:41:29;;;;;;;8.32;4.55;;;9.90;99.90;;;;;;10052906;29;20343;-45
2021/05/19 04:46:30;;;;;;;8.57;3.50;;;10.00;99.90;;;;;;10052795;29;20117;-44
2021/05/19 04:51:31;;;;;;;10.07;4.53;;;10.10;99.90;;;;;;10053887;29;20056;-44
2021/05/19 04:56:31;;;;;;;9.10;3.60;;;10.00;99.90;;;;;;10055021;29;20109;-44
2021/05/19 05:01:33;;;;;;;13.15;3.13;;;10.10;99.90;;;;;;10048832;29;20052;-44
2021/05/19 05:06:34;;;;;;;8.27;3.72;;;10.20;99.90;;;;;;10054957;29;20116;-44
2021/05/19 05:11:35;;;;;;;9.07;3.50;;;10.20;99.90;;;;;;10057635;29;20257;-45
2021/05/19 05:16:36;;;;;;;13.35;3.13;;;10.40;99.90;;;;;;10053669;29;20125;-45
2021/05/19 05:21:36;;;;;;;7.45;3.25;;;10.50;99.90;;;;;;10048518;29;20045;-45
2021/05/19 05:26:37;;;;;;;8.68;3.20;;;10.70;99.90;;;;;;10054383;29;20049;-45
2021/05/19 05:31:38;;;;;;;8.60;3.58;;;11.10;99.90;;;;;;10028305;29;20084;-44
2021/05/19 05:36:39;;;;;;;5.03;2.35;;;11.30;99.90;;;;;;10042097;29;20045;-45
2021/05/19 05:41:40;;;;;;;11.68;3.65;;;11.20;99.90;;;;;;10045056;29;20088;-45
2021/05/19 05:46:41;;;;;;;7.57;4.10;;;11.20;99.90;;;;;;10054454;29;20077;-45
2021/05/19 05:51:41;;;;;;;7.85;2.75;;;11.20;99.90;;;;;;10000779;29;20049;-45
2021/05/19 05:56:42;;;;;;;9.68;3.08;;;11.20;99.90;;;;;;10045943;29;20390;-45
2021/05/19 06:01:43;;;;;;;6.18;2.75;;;11.30;99.90;;;;;;10043808;29;20387;-44
2021/05/19 06:06:44;;;;;;;9.40;2.85;;;11.30;99.90;;;;;;10040122;29;20663;-44
2021/05/19 06:11:44;;;;;;;7.85;2.92;;;11.40;99.90;;;;;;10032645;29;20061;-44
2021/05/19 06:28:49;;;;;;;7.93;3.58;;;11.90;99.90;;;;;;10029632;29;20053;-93
2021/05/19 06:33:49;;;;;;;9.35;3.47;;;11.70;99.90;;;;;;10018695;29;20042;-92
2021/05/19 06:38:50;;;;;;;8.02;3.38;;;11.60;99.90;;;;;;10044774;29;20697;-91
2021/05/19 06:43:53;;;;;;;13.23;4.78;;;11.50;99.90;;;;;;10028480;29;20036;-92
2021/05/19 06:49:02;;;;;;;9.40;3.63;;;11.30;99.90;;;;;;10036588;29;20047;-92
2021/05/19 06:54:04;;;;;;;10.98;3.50;;;11.40;99.90;;;;;;10020308;29;20037;-92
2021/05/19 06:59:05;;;;;;;13.57;5.70;;;11.60;99.90;;;;;;10051589;29;20088;-92
2021/05/19 07:04:06;;;;;;;19.45;5.07;;;11.80;99.90;;;;;;10014362;29;20047;-92
2021/05/19 07:09:13;;;;;;;12.60;5.57;;;12.10;99.90;;;;;;10060982;29;20129;-92
2021/05/19 07:14:33;;;;;;;12.63;4.63;;;12.10;99.90;;;;;;10050376;29;22352;-93
2021/05/19 07:19:34;;;;;;;9.88;3.75;;;12.10;99.90;;;;;;10066915;29;20090;-92
2021/05/19 07:24:35;;;;;;;10.02;4.32;;;12.10;99.90;;;;;;10035190;23;20120;-45
2021/05/19 07:29:36;;;;;;;16.17;4.70;;;12.00;99.90;;;;;;10039302;29;20125;-45
2021/05/19 07:34:37;;;;;;;14.77;5.13;;;12.30;99.90;;;;;;10052277;29;20101;-45
2021/05/19 07:39:38;;;;;;;13.10;5.03;;;12.30;99.90;;;;;;10044927;29;20578;-44
2021/05/19 07:44:38;;;;;;;12.48;5.18;;;12.40;99.90;;;;;;10041305;29;20412;-44
2021/05/19 07:49:40;;;;;;;23.63;5.32;;;12.50;99.90;;;;;;10047414;29;20050;-45
2021/05/19 07:54:40;;;;;;;11.40;4.50;;;12.40;99.90;;;;;;10048560;29;20045;-45
2021/05/19 07:59:46;;;;;;;10.23;4.03;;;12.40;99.90;;;;;;10017417;29;20057;-44
2021/05/19 08:10:00;;;;;;;11.98;3.90;;;12.20;99.90;;;;;;10014088;29;20069;-44
2021/05/19 08:15:02;;;;;;;8.30;3.50;;;12.40;99.90;;;;;;10029843;29;20064;-45
2021/05/19 08:20:05;;;;;;;10.27;4.43;;;12.50;99.90;;;;;;10018865;29;20477;-45
2021/05/19 08:25:06;;;;;;;9.65;3.28;;;12.50;99.90;;;;;;10017480;29;20465;-45
2021/05/19 08:30:11;;;;;;;10.90;4.15;;;12.40;99.90;;;;;;10018024;29;20045;-44
2021/05/19 08:35:13;;;;;;;10.13;3.83;;;12.40;99.90;;;;;;10003924;29;20573;-45
2021/05/19 08:40:14;;;;;;;8.90;3.45;;;12.30;99.90;;;;;;10015371;29;20045;-45
2021/05/19 08:45:16;;;;;;;8.20;3.08;;;12.30;99.90;;;;;;10020060;29;20045;-46
2021/05/19 08:50:16;;;;;;;9.93;4.05;;;12.10;99.90;;;;;;10018007;29;20484;-45
2021/05/19 08:55:18;;;;;;;6.20;3.80;;;12.00;99.90;;;;;;10004157;29;20618;-45
2021/05/19 09:00:21;;;;;;;13.75;3.50;;;11.80;99.90;;;;;;10020129;29;20060;-45
2021/05/19 09:05:31;;;;;;;8.27;3.15;;;11.90;99.90;;;;;;10019850;29;20069;-45
2021/05/19 09:10:32;;;;;;;5.82;1.75;;;11.70;99.90;;;;;;9999041;29;20069;-45
2021/05/19 09:15:47;;;;;;;5.13;1.75;;;11.50;99.90;;;;;;10001389;29;20046;-45
2021/05/19 09:20:51;;;;;;;3.45;1.58;;;11.30;99.90;;;;;;10008304;29;20104;-45
2021/05/19 09:26:06;;;;;;;2.30;0.88;;;11.00;99.90;;;;;;10008584;29;20258;-45
2021/05/19 09:31:22;;;;;;;1.75;0.70;;;10.70;99.90;;;;;;9989056;29;20114;-44
2021/05/19 09:36:24;;;;;;;1.33;0.57;;;10.60;99.90;;;;;;10000777;29;20053;-44
2021/05/19 09:41:32;;;;;;;1.30;0.52;;;10.30;99.90;;;;;;10005848;29;20050;-45
2021/05/19 09:51:35;;;;;;;1.73;0.35;;;10.20;99.90;;;;;;10011255;29;20049;-45
2021/05/19 09:56:53;;;;;;;3.92;1.25;;;10.20;99.90;;;;;;10006844;29;20052;-45
2021/05/19 10:01:57;;;;;;;0.43;0.37;;;10.10;99.90;;;;;;10009779;29;20178;-45
2021/05/19 10:06:58;;;;;;;1.98;0.60;;;10.30;99.90;;;;;;10013655;29;20046;-45
2021/05/19 10:11:59;;;;;;;1.42;0.40;;;10.30;99.90;;;;;;10009901;29;20084;-45
2021/05/19 10:17:15;;;;;;;1.80;0.77;;;10.10;99.90;;;;;;10018132;29;20057;-45
2021/05/19 10:22:18;;;;;;;0.82;0.20;;;10.00;99.90;;;;;;10018286;29;20512;-45
2021/05/19 10:27:20;;;;;;;6.00;0.63;;;10.00;99.90;;;;;;10022903;29;20431;-45
2021/05/19 10:32:20;;;;;;;1.08;0.30;;;10.10;99.90;;;;;;10017907;29;20045;-46
2021/05/19 10:37:27;;;;;;;0.85;0.30;;;10.20;99.90;;;;;;10017745;29;20072;-46
2021/05/19 10:42:37;;;;;;;0.90;0.20;;;10.40;99.90;;;;;;10015613;29;20059;-46
2021/05/19 10:47:38;;;;;;;1.35;0.40;;;10.40;99.90;;;;;;10017114;29;20174;-47
2021/05/19 11:09:42;;;;;;;2.03;0.70;;;11.50;99.90;;;;;;10101988;23;20144;-47
2021/05/19 11:14:49;;;;;;;2.08;0.60;;;12.20;99.90;;;;;;10060232;29;20051;-46
2021/05/19 11:19:50;;;;;;;2.08;0.50;;;12.80;99.90;;;;;;10064172;29;20455;-46
2021/05/19 11:24:53;;;;;;;1.20;0.40;;;13.60;99.90;;;;;;10062177;29;20480;-46
2021/05/19 11:29:55;;;;;;;0.77;0.38;;;14.10;99.90;;;;;;10064093;29;20503;-46
2021/05/19 11:35:16;;;;;;;2.78;0.63;;;13.60;99.90;;;;;;10064032;29;20069;-46
2021/05/19 11:40:19;;;;;;;2.22;0.90;;;12.90;99.90;;;;;;10053005;29;20057;-46
2021/05/19 11:45:24;;;;;;;2.65;0.80;;;12.60;99.90;;;;;;10050696;29;20105;-46
2021/05/19 11:50:31;;;;;;;1.48;0.65;;;12.50;99.90;;;;;;10052586;29;20461;-46
2021/05/19 11:55:41;;;;;;;3.47;1.23;;;12.60;99.90;;;;;;10054304;29;20049;-45
2021/05/19 12:00:47;;;;;;;3.67;1.55;;;12.80;99.90;;;;;;10059576;29;20041;-45
2021/05/19 12:05:47;;;;;;;1.08;0.57;;;12.80;99.90;;;;;;10044448;29;20578;-45
2021/05/19 12:11:21;;;;;;;2.35;1.00;;;13.10;99.90;;;;;;10005650;29;20033;-45
2021/05/19 12:16:29;;;;;;;2.90;1.67;;;13.60;99.90;;;;;;10005042;29;20437;-45
2021/05/19 12:21:30;;;;;;;1.88;0.73;;;14.00;99.90;;;;;;9990296;29;20041;-45
2021/05/19 12:26:35;;;;;;;4.45;1.00;;;14.30;99.90;;;;;;10001146;29;20045;-45
2021/05/19 12:31:36;;;;;;;1.67;0.88;;;14.90;99.90;;;;;;9995218;29;20287;-45
2021/05/19 12:36:40;;;;;;;0.57;0.30;;;14.70;99.90;;;;;;10009904;29;20406;-45
2021/05/19 12:41:45;;;;;;;1.15;0.25;;;14.00;99.90;;;;;;10007969;29;20279;-45
2021/05/19 12:46:57;;;;;;;0.30;0.10;;;13.20;99.90;;;;;;10009604;29;20041;-45
2021/05/19 12:52:04;;;;;;;0.68;0.20;;;13.00;99.90;;;;;;10001206;29;20053;-44
2021/05/19 12:57:11;;;;;;;0.47;0.30;;;13.20;99.90;;;;;;10009729;29;20046;-44
2021/05/19 13:02:12;;;;;;;1.00;0.30;;;13.10;99.90;;;;;;10010140;29;20287;-44
2021/05/19 13:07:17;;;;;;;0.45;0.20;;;13.20;99.90;;;;;;9956601;29;20491;-45
2021/05/19 13:12:28;;;;;;;0.50;0.25;;;13.30;99.90;;;;;;9977823;29;20106;-45
2021/05/19 13:22:35;;;;;;;0.88;0.30;;;13.20;99.90;;;;;;10009230;29;20049;-44
2021/05/19 13:27:36;;;;;;;1.25;0.50;;;13.00;99.90;;;;;;9994389;29;20046;-44
2021/05/19 13:32:49;;;;;;;1.17;0.35;;;12.90;99.90;;;;;;9978201;29;20595;-44
2021/05/19 13:37:50;;;;;;;3.50;0.60;;;12.80;99.90;;;;;;9978266;29;20050;-44
2021/05/19 13:42:51;;;;;;;4.15;1.30;;;12.50;99.90;;;;;;9977965;29;20042;-44
2021/05/19 13:47:51;;;;;;;1.58;0.75;;;12.70;99.90;;;;;;9987599;29;20038;-44
2021/05/19 13:52:52;;;;;;;2.30;0.90;;;13.30;99.90;;;;;;10002960;29;20061;-44
2021/05/19 13:57:54;;;;;;;2.38;0.98;;;13.60;99.90;;;;;;10002566;29;20398;-44
2021/05/19 14:02:55;;;;;;;1.70;0.90;;;14.10;99.90;;;;;;10006169;29;20506;-44
2021/05/19 14:07:56;;;;;;;3.10;1.00;;;14.60;99.90;;;;;;9977685;29;20061;-44
2021/05/19 14:13:10;;;;;;;2.13;0.98;;;14.20;99.90;;;;;;9996647;29;20058;-44
2021/05/19 14:19:00;;;;;;;3.78;0.98;;;13.60;99.90;;;;;;10002037;29;20245;-44
2021/05/19 14:28:54;;;;;;;1.27;0.60;;;14.10;99.90;;;;;;9988858;29;20046;-44
2021/05/19 14:33:55;;;;;;;7.72;1.20;;;14.20;99.90;;;;;;9998957;29;20050;-44
2021/05/19 14:59:49;;;;;;;1.63;0.93;;;14.10;99.90;;;;;;10007417;29;20450;-44
2021/05/19 15:04:53;;;;;;;1.70;0.80;;;14.20;99.90;;;;;;9996965;29;20117;-44
2021/05/19 15:09:54;;;;;;;1.80;0.63;;;13.90;99.90;;;;;;9997951;29;20575;-44
2021/05/19 15:14:55;;;;;;;2.88;0.75;;;13.70;99.90;;;;;;9995523;29;21930;-44
2021/05/19 15:19:56;;;;;;;3.85;1.40;;;13.60;99.90;;;;;;9982016;29;20050;-44
2021/05/19 15:24:56;;;;;;;2.53;0.90;;;13.40;99.90;;;;;;9996028;29;20128;-44
2021/05/19 15:29:57;;;;;;;1.38;0.43;;;13.50;99.90;;;;;;9996184;29;20135;-44
2021/05/19 15:34:58;;;;;;;2.50;1.10;;;13.70;99.90;;;;;;9996460;29;20061;-44
2021/05/19 15:39:59;;;;;;;3.25;1.10;;;13.90;99.90;;;;;;9998389;29;20186;-44
2021/05/19 15:45:00;;;;;;;1.27;0.52;;;14.00;99.90;;;;;;10001988;29;20623;-44
2021/05/19 15:50:01;;;;;;;1.70;0.70;;;13.70;99.90;;;;;;10001696;29;20041;-44
2021/05/19 15:55:02;;;;;;;2.15;1.17;;;13.60;99.90;;;;;;9998828;29;20054;-44
2021/05/19 16:00:08;;;;;;;2.40;0.95;;;13.60;99.90;;;;;;9997167;29;20053;-44
2021/05/19 16:05:12;;;;;;;3.90;1.45;;;13.50;99.90;;;;;;9988718;29;20137;-44
2021/05/19 16:10:13;;;;;;;1.77;0.60;;;13.40;99.90;;;;;;9969806;29;20171;-44
2021/05/19 16:15:14;;;;;;;2.60;0.80;;;13.30;99.90;;;;;;10006450;29;20583;-44
2021/05/19 16:20:16;;;;;;;1.80;1.00;;;13.20;99.90;;;;;;10005959;29;20053;-44
2021/05/19 16:25:16;;;;;;;2.22;0.85;;;13.00;99.90;;;;;;10000475;29;20068;-44
2021/05/19 16:30:58;;;;;;;3.50;1.20;;;13.00;99.90;;;;;;10010598;29;20060;-44
2021/05/19 16:35:59;;;;;;;2.20;1.15;;;13.00;99.90;;;;;;10006684;29;20470;-44
2021/05/19 16:40:59;;;;;;;1.42;0.68;;;13.10;99.90;;;;;;10012109;29;20131;-44
2021/05/19 16:46:00;;;;;;;4.38;1.25;;;13.00;99.90;;;;;;10005131;29;20085;-44
2021/05/19 16:51:01;;;;;;;4.38;2.10;;;13.00;99.90;;;;;;9997313;29;20038;-44
2021/05/19 16:56:03;;;;;;;2.70;0.77;;;13.10;99.90;;;;;;9996689;29;20148;-44
2021/05/19 17:01:07;;;;;;;3.65;1.67;;;13.10;99.90;;;;;;9998702;29;20038;-44
2021/05/19 17:06:08;;;;;;;2.50;1.20;;;13.00;99.90;;;;;;9998711;29;20045;-44
2021/05/19 17:11:09;;;;;;;8.65;1.48;;;13.00;99.90;;;;;;10000844;29;20257;-44
2021/05/19 17:16:09;;;;;;;3.17;1.73;;;12.90;99.90;;;;;;9997315;29;20465;-44
2021/05/19 17:21:10;;;;;;;6.25;1.33;;;12.70;99.90;;;;;;9995437;29;20069;-44
2021/05/19 17:26:11;;;;;;;4.63;1.20;;;12.60;99.90;;;;;;9999654;29;20125;-44
2021/05/19 17:31:11;;;;;;;1.67;0.80;;;12.30;99.90;;;;;;9995048;29;20057;-43
2021/05/19 17:36:17;;;;;;;2.45;0.50;;;12.20;99.90;;;;;;9993907;29;20767;-43
2021/05/19 17:41:21;;;;;;;1.27;0.63;;;12.30;99.90;;;;;;9996010;29;20114;-45
2021/05/19 17:46:22;;;;;;;0.77;0.30;;;12.10;99.90;;;;;;9997275;29;20046;-45
2021/05/19 17:51:23;;;;;;;0.85;0.47;;;12.00;99.90;;;;;;9993381;29;20461;-44
2021/05/19 17:56:24;;;;;;;0.75;0.30;;;12.10;99.90;;;;;;9998639;29;20663;-44
2021/05/19 18:01:28;;;;;;;1.02;0.65;;;12.00;99.90;;;;;;9997479;29;20057;-44
2021/05/19 18:06:35;;;;;;;0.80;0.20;;;12.00;99.90;;;;;;9999580;29;20467;-44
2021/05/19 18:11:39;;;;;;;0.43;0.30;;;12.00;99.90;;;;;;9999140;29;20042;-44
2021/05/19 18:16:40;;;;;;;1.75;0.40;;;12.10;99.90;;;;;;9994181;29;20050;-44
2021/05/19 18:21:41;;;;;;;1.33;0.38;;;12.10;99.90;;;;;;9995222;29;20141;-44
2021/05/19 18:26:44;;;;;;;1.10;0.40;;;12.20;99.90;;;;;;9995709;29;20132;-45
2021/05/19 18:31:52;;;;;;;1.30;0.40;;;12.40;99.90;;;;;;9997439;29;20053;-44
2021/05/19 18:36:52;;;;;;;0.60;0.30;;;12.50;99.90;;;;;;9994076;29;20061;-44
2021/05/19 18:41:53;;;;;;;0.75;0.38;;;12.40;99.90;;;;;;9995062;29;20517;-44
2021/05/19 18:47:02;;;;;;;2.45;0.50;;;12.50;99.90;;;;;;9996550;29;20636;-45
2021/05/19 18:52:05;;;;;;;3.70;0.82;;;12.50;99.90;;;;;;9996373;29;20064;-44
2021/05/19 18:57:13;;;;;;;1.10;0.65;;;12.50;99.90;;;;;;9995235;29;20054;-44
2021/05/19 19:02:15;;;;;;;2.13;0.57;;;12.50;99.90;;;;;;9993969;29;20041;-44
2021/05/19 19:07:16;;;;;;;1.55;0.70;;;12.40;99.90;;;;;;9987537;29;20080;-44
2021/05/19 19:12:17;;;;;;;1.85;0.50;;;12.20;99.90;;;;;;9993758;29;20116;-44
2021/05/19 19:17:18;;;;;;;1.35;0.68;;;12.20;99.90;;;;;;9995361;29;20058;-44
2021/05/19 19:22:19;;;;;;;1.65;0.80;;;12.00;99.90;;;;;;9989787;29;20589;-44
2021/05/19 19:27:21;;;;;;;2.00;0.57;;;12.10;99.90;;;;;;9993776;29;20038;-44
2021/05/19 19:32:23;;;;;;;2.22;0.68;;;12.10;99.90;;;;;;9998629;29;20072;-45
2021/05/19 19:37:24;;;;;;;1.65;0.68;;;12.10;99.90;;;;;;9991717;29;20045;-44
2021/05/19 19:42:25;;;;;;;1.73;0.80;;;12.10;99.90;;;;;;9998493;29;20742;-44
2021/05/19 19:47:26;;;;;;;1.27;0.70;;;12.00;99.90;;;;;;9998545;29;20050;-44
2021/05/19 19:52:26;;;;;;;2.35;1.00;;;11.80;99.90;;;;;;10001148;29;20054;-44
2021/05/19 19:57:27;;;;;;;1.88;0.95;;;11.70;99.90;;;;;;10088781;23;20065;-93
2021/05/19 20:02:34;;;;;;;4.38;1.33;;;11.60;99.90;;;;;;10024805;29;20041;-93
2021/05/19 20:07:36;;;;;;;2.90;1.08;;;11.50;99.90;;;;;;10031104;29;20049;-93
2021/05/19 20:12:37;;;;;;;2.17;1.08;;;11.40;99.90;;;;;;10019992;23;20064;-46
2021/05/19 20:17:38;;;;;;;4.22;1.05;;;11.20;99.90;;;;;;10063910;29;20429;-46
2021/05/19 20:22:41;;;;;;;3.00;0.90;;;11.10;99.90;;;;;;10065597;29;20041;-46
2021/05/19 20:27:42;;;;;;;2.47;1.15;;;10.90;99.90;;;;;;10064247;29;20037;-46
2021/05/19 20:32:43;;;;;;;4.18;1.27;;;10.80;99.90;;;;;;10056120;29;20497;-46
2021/05/19 20:37:44;;;;;;;3.65;1.38;;;10.70;99.90;;;;;;10059007;29;20544;-46
2021/05/19 20:42:45;;;;;;;2.60;1.15;;;10.60;99.90;;;;;;10060964;29;20033;-46
2021/05/19 20:47:46;;;;;;;3.30;1.35;;;10.50;99.90;;;;;;10059701;29;20068;-46
2021/05/19 20:52:48;;;;;;;4.80;2.03;;;10.40;99.90;;;;;;10062066;29;20080;-46
2021/05/19 20:57:49;;;;;;;4.05;1.73;;;10.30;99.90;;;;;;10020315;29;20408;-46
2021/05/19 21:02:54;;;;;;;5.00;2.30;;;10.30;99.90;;;;;;10008673;29;20042;-46
2021/05/19 21:07:55;;;;;;;3.80;1.65;;;10.20;99.90;;;;;;10007763;29;20060;-46
2021/05/19 21:12:56;;;;;;;4.40;2.05;;;10.10;99.90;;;;;;10010214;29;20061;-46
2021/05/19 21:17:56;;;;;;;4.13;2.22;;;10.00;99.90;;;;;;10006966;29;20053;-46
2021/05/19 21:23:00;;;;;;;6.32;2.50;;;9.90;99.90;;;;;;10008969;29;20077;-46
2021/05/19 21:28:01;;;;;;;5.28;2.22;;;9.90;99.90;;;;;;10005567;29;20436;-46
2021/05/19 21:33:02;;;;;;;6.50;2.78;;;9.80;99.90;;;;;;10003634;29;20050;-46
2021/05/19 21:38:03;;;;;;;7.53;3.47;;;9.80;99.90;;;;;;10006101;29;20049;-46
2021/05/19 21:43:04;;;;;;;5.38;2.75;;;9.70;99.90;;;;;;10006324;29;20065;-46
2021/05/19 21:48:05;;;;;;;8.52;3.35;;;9.70;99.90;;;;;;10005830;29;20057;-46
2021/05/19 21:53:06;;;;;;;8.48;4.40;;;9.60;99.90;;;;;;10007893;29;20113;-46
2021/05/19 21:58:10;;;;;;;7.57;4.32;;;9.50;99.90;;;;;;10012273;29;20553;-46
2021/05/19 22:03:14;;;;;;;8.45;4.22;;;9.50;99.90;;;;;;9998110;29;20050;-46
2021/05/19 22:08:17;;;;;;;10.73;5.53;;;9.50;99.90;;;;;;9986941;29;20049;-46
2021/05/19 22:13:17;;;;;;;13.00;3.85;;;9.50;99.90;;;;;;10007501;29;20050;-46
2021/05/19 22:18:44;;;;;;;9.48;3.65;;;9.40;99.90;;;;;;10005489;29;20049;-46
2021/05/19 22:24:03;;;;;;;9.20;3.50;;;9.40;99.90;;;;;;10004658;29;20038;-46
2021/05/19 22:29:11;;;;;;;10.43;4.93;;;9.30;99.90;;;;;;10007036;29;20110;-46
2021/05/19 22:34:15;;;;;;;13.40;4.28;;;9.30;99.90;;;;;;10003218;29;20137;-46
2021/05/19 22:39:19;;;;;;;9.18;4.45;;;9.20;99.90;;;;;;9990430;29;20058;-46
2021/05/19 22:44:27;;;;;;;10.02;5.15;;;9.20;99.90;;;;;;10004219;29;20467;-46
2021/05/19 22:49:29;;;;;;;11.63;3.97;;;9.10;99.90;;;;;;9985782;29;20118;-46
2021/05/19 22:54:30;;;;;;;7.93;3.88;;;9.10;99.90;;;;;;10001348;29;20108;-46
2021/05/19 22:59:31;;;;;;;9.00;4.07;;;9.10;99.90;;;;;;10003789;29;20105;-46
2021/05/19 23:04:32;;;;;;;7.55;3.35;;;9.10;99.90;;;;;;10000265;29;20053;-46
2021/05/19 23:09:36;;;;;;;8.75;3.70;;;9.20;99.90;;;;;;10000554;29;20045;-46
2021/05/19 23:14:36;;;;;;;8.65;4.68;;;9.10;99.90;;;;;;10003841;29;20076;-46
2021/05/19 23:19:37;;;;;;;9.07;3.88;;;9.10;99.90;;;;;;10001810;29;20537;-46
2021/05/19 23:24:38;;;;;;;10.10;4.28;;;9.10;99.90;;;;;;9976092;29;20048;-46
2021/05/19 23:29:39;;;;;;;10.25;3.78;;;9.10;99.90;;;;;;10007709;29;20073;-46
2021/05/19 23:34:40;;;;;;;12.30;5.00;;;9.10;99.90;;;;;;10003134;29;20514;-46
2021/05/19 23:39:41;;;;;;;11.48;4.70;;;9.00;99.90;;;;;;9998779;29;20238;-46
2021/05/19 23:44:42;;;;;;;10.48;4.28;;;9.00;99.90;;;;;;9984746;29;20053;-46
2021/05/19 23:49:43;;;;;;;11.77;4.28;;;8.90;99.90;;;;;;10002433;29;20125;-46
2021/05/19 23:54:47;;;;;;;8.48;4.13;;;8.90;99.90;;;;;;10001143;29;20077;-46
2021/05/19 23:59:48;;;;;;;9.32;4.25;;;8.80;99.90;;;;;;10004185;29;20175;-46
